Al Cenac — WDD5445 — position and weather

sailwx.info

Track history (hours):
 
Tides and Currents Weather Stations Pressure Air Temp Water Temp Dewpoint Dewpoint Depression Visibility Wind Speed Wind Dir Waves Ship Positions

Al Cenac

Owner: Caillou Island Towing Co, Inc., Houma, LA. More information available from US FCC via Universal Licensing System and Coast Guard Vessel Documentation Center.

Last reported at 2017-Nov-19 10:01 UTC. Time now 2017-Nov-19 10:12 UTC.
Position N 40°40' W 074°04'.

; draft 10 m.

Type: Tug. MMSI: 367158530.

Date/timePositionNaut miles runAvg speedWind from/ knotsBaromVisibWave heightAir tempDewpointWater temp
2017-Nov-19 10:01N 40°40' W 074°04'0 0.0
2017-Nov-19 09:31N 40°40' W 074°04'0 0.0
2017-Nov-19 09:01N 40°40' W 074°04'0 0.0
2017-Nov-19 08:31N 40°40' W 074°04'0 0.7
2017-Nov-19 08:01N 40°40' W 074°04'2 3.5
2017-Nov-19 07:27N 40°39' W 074°07'0 1.1
2017-Nov-19 07:01N 40°39' W 074°06'2 3.6
2017-Nov-19 06:31N 40°39' W 074°04'1 1.8
2017-Nov-19 06:01N 40°40' W 074°04'0 0.0
2017-Nov-19 05:31N 40°40' W 074°04'0 0.0
2017-Nov-19 05:01N 40°40' W 074°04'0 0.0
2017-Nov-19 04:31N 40°40' W 074°04'0 0.3
2017-Nov-19 04:01N 40°40' W 074°04'4 7.9
2017-Nov-19 03:28N 40°39' W 074°09'2 5.1
2017-Nov-19 03:00N 40°38' W 074°12'0 0.0
2017-Nov-19 02:30N 40°38' W 074°12'3 5.3
2017-Nov-19 02:00N 40°39' W 074°09'1 1.2
2017-Nov-19 01:10N 40°38' W 074°08'0 0.0
2017-Nov-19 00:43N 40°38' W 074°08'0 0.0
2017-Nov-19 00:28N 40°38' W 074°08'0 0.0
2017-Nov-18 23:57N 40°38' W 074°08'0 0.0
2017-Nov-18 23:26N 40°38' W 074°08'0 0.0
2017-Nov-18 22:54N 40°38' W 074°08'0 0.0
2017-Nov-18 22:30N 40°38' W 074°08'0 0.0
2017-Nov-18 21:22N 40°38' W 074°08'0 0.0
2017-Nov-18 20:54N 40°38' W 074°08'0 0.0
2017-Nov-18 20:29N 40°38' W 074°08'0 0.0
2017-Nov-18 19:59N 40°38' W 074°08'0 0.0
2017-Nov-18 19:30N 40°38' W 074°08'0 0.0
2017-Nov-18 18:59N 40°38' W 074°08'0 0.0
2017-Nov-18 18:30N 40°38' W 074°08'0 0.0
2017-Nov-18 18:00N 40°38' W 074°08'0 0.0
2017-Nov-18 17:30N 40°38' W 074°08'0 0.0
2017-Nov-18 17:00N 40°38' W 074°08'0 0.0
2017-Nov-18 16:30N 40°38' W 074°08'0 0.0
2017-Nov-18 15:59N 40°38' W 074°08'0 0.0
2017-Nov-18 15:30N 40°38' W 074°08'0 0.0
2017-Nov-18 15:00N 40°38' W 074°08'0 0.0
2017-Nov-18 14:30N 40°38' W 074°08'1 2.2
2017-Nov-18 14:00N 40°39' W 074°06'3 6.6
2017-Nov-18 13:31N 40°40' W 074°03'3 5.5
2017-Nov-18 13:01N 40°43' W 074°02'3 5.5
2017-Nov-18 12:30N 40°46' W 074°01'1 1.2
2017-Nov-18 12:01N 40°46' W 073°60'0 0.4
2017-Nov-18 11:30N 40°46' W 074°00'1 2.9
2017-Nov-18 11:00N 40°45' W 074°01'1 2.6
2017-Nov-18 10:31N 40°44' W 074°02'3 6.7
2017-Nov-18 10:01N 40°41' W 074°03'3 6.2
2017-Nov-18 09:29N 40°39' W 074°06'1 2.4
2017-Nov-18 09:01N 40°39' W 074°08'0 0.0
2017-Nov-18 08:31N 40°39' W 074°08'0 0.0
2017-Nov-18 08:01N 40°39' W 074°08'0 0.0
2017-Nov-18 07:30N 40°39' W 074°08'0 0.0
2017-Nov-18 07:00N 40°39' W 074°08'0 0.0
2017-Nov-18 06:30N 40°39' W 074°08'0 0.0
2017-Nov-18 06:00N 40°39' W 074°08'0 0.0
2017-Nov-18 05:31N 40°39' W 074°08'0 0.0
2017-Nov-18 05:00N 40°39' W 074°08'0 0.0
2017-Nov-18 04:30N 40°39' W 074°08'0 0.1
2017-Nov-18 04:00N 40°39' W 074°08'2 3.2
2017-Nov-18 03:31N 40°39' W 074°10'0 0.1
2017-Nov-18 03:00N 40°39' W 074°10'2 3.0
2017-Nov-18 02:30N 40°38' W 074°12'3 7.1
2017-Nov-18 02:01N 40°35' W 074°13'3 5.9
2017-Nov-18 01:29N 40°32' W 074°15'1 0.3
2017-Nov-17 21:49N 40°33' W 074°14'4 6.2
2017-Nov-17 21:15N 40°37' W 074°12'1 4.1
2017-Nov-17 21:00N 40°38' W 074°12'0 0.2
2017-Nov-17 20:30N 40°38' W 074°12'3 5.1
2017-Nov-17 20:00N 40°39' W 074°09'3 6.7
2017-Nov-17 19:31N 40°39' W 074°05'1 1.1
2017-Nov-17 19:00N 40°39' W 074°04'1 1.5
2017-Nov-17 18:31N 40°39' W 074°05'1 2.9
2017-Nov-17 18:01N 40°39' W 074°03'3 5.8
2017-Nov-17 17:31N 40°41' W 074°01'1 2.1
2017-Nov-17 17:01N 40°42' W 074°00'0 0.2
2017-Nov-17 16:31N 40°42' W 074°00'2 4.6
2017-Nov-17 16:01N 40°40' W 074°02'4 8.2
2017-Nov-17 15:30N 40°39' W 074°08'0 0.4
2017-Nov-17 14:59N 40°39' W 074°08'0 0.0
2017-Nov-17 14:30N 40°39' W 074°08'0 0.0
2017-Nov-17 14:00N 40°39' W 074°08'0 0.0
2017-Nov-17 13:30N 40°39' W 074°08'0 0.0
2017-Nov-17 12:53N 40°39' W 074°08'0 0.0
2017-Nov-17 12:30N 40°39' W 074°08'0 0.0
2017-Nov-17 12:00N 40°39' W 074°08'0 0.0
2017-Nov-17 11:30N 40°39' W 074°08'0 0.0
2017-Nov-17 10:59N 40°39' W 074°08'0 0.0
2017-Nov-17 10:29N 40°39' W 074°08'3 5.5
2017-Nov-17 09:59N 40°38' W 074°12'2 4.7
2017-Nov-17 09:30N 40°36' W 074°12'1 1.6
2017-Nov-17 08:58N 40°37' W 074°12'1 1.3
2017-Nov-17 08:31N 40°38' W 074°12'0 0.0
2017-Nov-17 08:01N 40°38' W 074°12'1 2.0
2017-Nov-17 07:30N 40°37' W 074°12'1 2.7
2017-Nov-17 06:59N 40°35' W 074°13'0 0.0
2017-Nov-17 06:30N 40°35' W 074°13'4 7.2
2017-Nov-17 06:00N 40°39' W 074°11'2 5.0
2017-Nov-17 05:30N 40°39' W 074°08'0 0.0
2017-Nov-17 05:00N 40°39' W 074°08'0 0.0
2017-Nov-17 04:30N 40°39' W 074°08'0 0.0
2017-Nov-17 04:00N 40°39' W 074°08'0 0.0
2017-Nov-17 03:31N 40°39' W 074°08'0 0.0
2017-Nov-17 03:00N 40°39' W 074°08'0 0.0
2017-Nov-17 02:30N 40°39' W 074°08'0 0.0
2017-Nov-17 02:00N 40°39' W 074°08'0 0.0
2017-Nov-17 01:30N 40°39' W 074°08'0 0.0
2017-Nov-17 01:00N 40°39' W 074°08'0 0.0
2017-Nov-17 00:30N 40°39' W 074°08'0 0.0
2017-Nov-17 00:00N 40°39' W 074°08'0 0.0
2017-Nov-16 23:31N 40°39' W 074°08'2 4.0
2017-Nov-16 23:00N 40°39' W 074°11'1 2.0
2017-Nov-16 22:30N 40°38' W 074°12'0 0.0
2017-Nov-16 22:01N 40°38' W 074°12'0 0.3
2017-Nov-16 21:29N 40°38' W 074°12'1 2.1
2017-Nov-16 21:00N 40°37' W 074°12'2 4.0
2017-Nov-16 20:30N 40°35' W 074°13'0 0.5
2017-Nov-16 20:00N 40°35' W 074°12'0 0.6
2017-Nov-16 19:28N 40°36' W 074°12'0 0.0
2017-Nov-16 19:00N 40°36' W 074°12'0 0.0
2017-Nov-16 18:29N 40°36' W 074°12'0 0.7
2017-Nov-16 17:59N 40°36' W 074°12'0 0.8
2017-Nov-16 17:31N 40°36' W 074°12'0 0.0
2017-Nov-16 16:58N 40°36' W 074°12'0 0.0
2017-Nov-16 16:28N 40°36' W 074°12'0 0.0
2017-Nov-16 15:58N 40°36' W 074°12'4 2.2
2017-Nov-16 14:13N 40°33' W 074°15'4 3.2
2017-Nov-16 13:03N 40°36' W 074°12'0 1.1
2017-Nov-16 13:00N 40°36' W 074°12'4 1.9
2017-Nov-16 11:00N 40°33' W 074°15'1 0.1
2017-Nov-16 02:14N 40°33' W 074°14'3 8.0
2017-Nov-16 01:55N 40°36' W 074°12'3 7.7
2017-Nov-16 01:30N 40°39' W 074°11'4 7.2
2017-Nov-16 01:00N 40°39' W 074°07'4 7.4
2017-Nov-16 00:31N 40°41' W 074°02'3 6.5
2017-Nov-16 00:01N 40°43' W 073°59'1 1.1
2017-Nov-15 23:31N 40°42' W 073°58'0 0.0
2017-Nov-15 23:00N 40°42' W 073°58'0 0.0
2017-Nov-15 22:31N 40°42' W 073°58'0 0.0
2017-Nov-15 22:01N 40°42' W 073°58'0 0.0
2017-Nov-15 21:31N 40°42' W 073°58'0 0.0
2017-Nov-15 21:01N 40°42' W 073°58'0 0.0
2017-Nov-15 20:30N 40°42' W 073°58'0 0.0
2017-Nov-15 20:01N 40°42' W 073°58'0 0.0
2017-Nov-15 19:31N 40°42' W 073°58'0 0.1
2017-Nov-15 19:00N 40°42' W 073°58'1 2.1
2017-Nov-15 18:30N 40°42' W 073°60'1 2.2
2017-Nov-15 18:00N 40°42' W 073°58'0 0.0
2017-Nov-15 17:30N 40°42' W 073°58'2 4.5
2017-Nov-15 17:01N 40°41' W 074°01'4 7.1
2017-Nov-15 16:30N 40°39' W 074°05'3 5.1
2017-Nov-15 16:01N 40°39' W 074°08'0 0.0
2017-Nov-15 15:31N 40°39' W 074°08'2 3.0
2017-Nov-15 15:00N 40°39' W 074°06'4 8.3
2017-Nov-15 14:31N 40°42' W 074°02'4 8.9
2017-Nov-15 14:01N 40°46' W 074°01'4 8.0
2017-Nov-15 13:29N 40°50' W 073°58'3 7.1
2017-Nov-15 13:00N 40°53' W 073°56'3 6.3
2017-Nov-15 12:30N 40°56' W 073°54'0 0.0
2017-Nov-15 11:58N 40°56' W 073°54'1 1.2
2017-Nov-15 11:30N 40°56' W 073°55'0 0.5
2017-Nov-15 10:57N 40°56' W 073°55'3 7.3
2017-Nov-15 10:31N 40°53' W 073°56'5 9.7
2017-Nov-15 10:00N 40°48' W 073°59'2 4.9
2017-Nov-15 09:31N 40°46' W 073°60'0 0.0
2017-Nov-15 09:00N 40°46' W 073°60'0 0.0
2017-Nov-15 08:31N 40°46' W 073°60'0 0.0
2017-Nov-15 08:01N 40°46' W 073°60'0 0.0
2017-Nov-15 07:30N 40°46' W 073°60'0 0.0
2017-Nov-15 07:01N 40°46' W 073°60'0 0.0
2017-Nov-15 06:31N 40°46' W 073°60'0 0.0
2017-Nov-15 06:00N 40°46' W 073°60'0 0.0
2017-Nov-15 05:30N 40°46' W 073°60'0 0.0
2017-Nov-15 05:01N 40°46' W 073°60'0 0.0
2017-Nov-15 04:31N 40°46' W 073°60'0 0.0
2017-Nov-15 04:01N 40°46' W 073°60'0 0.0
2017-Nov-15 03:30N 40°46' W 073°60'1 1.2
2017-Nov-15 03:00N 40°47' W 073°60'510.1
2017-Nov-15 02:30N 40°51' W 073°57'4 8.0
2017-Nov-15 01:57N 40°56' W 073°55'0 0.5
2017-Nov-15 01:29N 40°56' W 073°54'4 7.7
2017-Nov-15 01:00N 40°52' W 073°56'5 9.3
2017-Nov-15 00:30N 40°48' W 073°59'5 9.2
2017-Nov-15 00:01N 40°44' W 074°01'4 8.9
2017-Nov-14 23:31N 40°40' W 074°03'4 6.9
2017-Nov-14 23:00N 40°38' W 074°08'0 0.0
2017-Nov-14 22:30N 40°38' W 074°08'0 0.8
2017-Nov-14 22:00N 40°39' W 074°07'0 0.2
2017-Nov-14 21:29N 40°39' W 074°07'2 4.2
2017-Nov-14 21:01N 40°38' W 074°10'0 0.0
2017-Nov-14 20:30N 40°38' W 074°10'0 0.0
2017-Nov-14 20:00N 40°38' W 074°10'0 0.0
2017-Nov-14 19:30N 40°38' W 074°10'0 0.0
2017-Nov-14 19:00N 40°38' W 074°10'0 0.0
2017-Nov-14 18:29N 40°38' W 074°10'0 0.0
2017-Nov-14 18:00N 40°38' W 074°10'1 1.3
2017-Nov-14 17:30N 40°38' W 074°09'3 5.4
2017-Nov-14 17:01N 40°39' W 074°06'0 0.0
2017-Nov-14 16:31N 40°39' W 074°05'2 3.6
2017-Nov-14 15:59N 40°38' W 074°08'0 0.0
2017-Nov-14 15:25N 40°38' W 074°08'0 0.0
2017-Nov-14 15:00N 40°38' W 074°08'0 0.0
2017-Nov-14 14:31N 40°38' W 074°08'0 0.0
2017-Nov-14 14:00N 40°38' W 074°08'0 0.0
2017-Nov-14 13:29N 40°38' W 074°08'0 0.0
2017-Nov-14 13:01N 40°38' W 074°08'0 0.0
2017-Nov-14 12:29N 40°38' W 074°08'0 0.0
2017-Nov-14 12:00N 40°38' W 074°08'0 0.0
2017-Nov-14 11:31N 40°38' W 074°08'0 0.0
2017-Nov-14 11:01N 40°38' W 074°08'2 4.3
2017-Nov-14 10:30N 40°39' W 074°11'4 7.1
2017-Nov-14 09:58N 40°35' W 074°12'1 2.5
2017-Nov-14 09:28N 40°36' W 074°12'4 4.1
2017-Nov-14 08:30N 40°38' W 074°08'0 0.0
2017-Nov-14 08:00N 40°38' W 074°08'0 0.0
2017-Nov-14 07:30N 40°38' W 074°08'0 0.0
2017-Nov-14 06:59N 40°38' W 074°08'0 0.0
2017-Nov-14 06:30N 40°38' W 074°08'0 0.0
2017-Nov-14 06:00N 40°38' W 074°08'0 0.0
2017-Nov-14 05:29N 40°38' W 074°08'0 0.0
2017-Nov-14 05:00N 40°38' W 074°08'0 0.0
2017-Nov-14 04:30N 40°38' W 074°08'0 0.0
2017-Nov-14 04:00N 40°38' W 074°08'0 0.0
2017-Nov-14 03:30N 40°38' W 074°08'1 1.4
2017-Nov-14 03:00N 40°39' W 074°07'1 2.3
2017-Nov-14 02:30N 40°39' W 074°05'2 3.0
2017-Nov-14 02:00N 40°39' W 074°07'3 6.4
2017-Nov-14 01:30N 40°38' W 074°12'0 0.2
2017-Nov-14 01:00N 40°38' W 074°12'0 0.0
2017-Nov-14 00:30N 40°38' W 074°12'0 0.0
2017-Nov-14 00:00N 40°38' W 074°12'3 5.8
2017-Nov-13 23:30N 40°38' W 074°08'0 0.0
2017-Nov-13 22:55N 40°38' W 074°08'0 0.0
2017-Nov-13 22:29N 40°38' W 074°08'0 0.0
2017-Nov-13 22:00N 40°38' W 074°08'0 0.0
2017-Nov-13 01:59N 40°38' W 074°08'0 0.0
2017-Nov-13 01:30N 40°38' W 074°08'0 0.0
2017-Nov-13 01:00N 40°38' W 074°08'0 0.0
2017-Nov-13 00:30N 40°38' W 074°08'0 0.0
2017-Nov-12 23:59N 40°38' W 074°08'0 0.0
2017-Nov-12 23:30N 40°38' W 074°08'0 0.0
2017-Nov-12 23:00N 40°38' W 074°08'0 0.0
2017-Nov-12 22:30N 40°38' W 074°08'0 0.0
2017-Nov-12 22:00N 40°38' W 074°08'0 0.0
2017-Nov-12 21:30N 40°38' W 074°08'0 0.0
2017-Nov-12 21:01N 40°38' W 074°08'0 0.0
2017-Nov-12 20:29N 40°38' W 074°08'0 0.0
2017-Nov-12 20:00N 40°38' W 074°08'0 0.0
2017-Nov-12 19:30N 40°38' W 074°08'0 0.0
2017-Nov-12 18:59N 40°38' W 074°08'0 0.0
2017-Nov-12 18:30N 40°38' W 074°08'0 0.0
2017-Nov-12 18:00N 40°38' W 074°08'1 1.3
2017-Nov-12 17:30N 40°39' W 074°09'4 7.6
2017-Nov-12 17:00N 40°42' W 074°07'0 0.5
2017-Nov-12 16:30N 40°42' W 074°07'3 7.0
2017-Nov-12 16:00N 40°39' W 074°09'1 2.0
2017-Nov-12 15:30N 40°39' W 074°08'0 0.0
2017-Nov-12 15:00N 40°39' W 074°08'0 0.0
2017-Nov-12 14:30N 40°39' W 074°08'2 3.7
2017-Nov-12 14:00N 40°39' W 074°05'4 8.4
2017-Nov-12 13:30N 40°42' W 074°02'4 8.3
2017-Nov-12 13:00N 40°46' W 073°60'0 0.3
2017-Nov-12 12:30N 40°46' W 074°00'0 0.2
2017-Nov-12 12:00N 40°46' W 073°60'0 0.0
2017-Nov-12 11:30N 40°46' W 073°60'4 7.6
2017-Nov-12 11:00N 40°43' W 074°01'4 7.8
2017-Nov-12 10:30N 40°39' W 074°04'3 6.0
2017-Nov-12 09:59N 40°38' W 074°08'0 0.0
2017-Nov-12 09:30N 40°38' W 074°08'0 0.0
2017-Nov-12 09:00N 40°38' W 074°08'0 0.0
2017-Nov-12 08:30N 40°38' W 074°08'0 0.0
2017-Nov-12 08:01N 40°38' W 074°08'0 0.0
2017-Nov-12 07:30N 40°38' W 074°08'0 0.0
2017-Nov-12 07:00N 40°38' W 074°08'0 0.0
2017-Nov-12 06:29N 40°38' W 074°08'0 0.0
2017-Nov-12 06:00N 40°38' W 074°08'0 0.0
2017-Nov-12 05:30N 40°38' W 074°08'0 0.0
2017-Nov-12 05:00N 40°38' W 074°08'0 0.0
2017-Nov-12 04:30N 40°38' W 074°08'0 0.0
2017-Nov-12 04:00N 40°38' W 074°08'0 0.0
2017-Nov-12 03:30N 40°38' W 074°08'0 0.0
2017-Nov-12 03:00N 40°38' W 074°08'0 0.0
2017-Nov-12 02:30N 40°38' W 074°08'0 0.0
2017-Nov-12 02:00N 40°38' W 074°08'0 0.0
2017-Nov-12 01:30N 40°38' W 074°08'0 0.0
2017-Nov-12 01:00N 40°38' W 074°08'0 0.0
2017-Nov-12 00:30N 40°38' W 074°08'0 0.0
2017-Nov-12 00:00N 40°38' W 074°08'1 2.6
2017-Nov-11 23:30N 40°39' W 074°06'4 8.4
2017-Nov-11 23:00N 40°40' W 074°01'1 1.1
2017-Nov-11 22:31N 40°40' W 074°01'5 9.6
2017-Nov-11 22:00N 40°39' W 074°08'0 0.2
2017-Nov-11 21:30N 40°38' W 074°08'0 0.0
2017-Nov-11 21:00N 40°38' W 074°08'0 0.0
2017-Nov-11 20:30N 40°38' W 074°08'0 0.0
2017-Nov-11 20:00N 40°38' W 074°08'0 0.0
2017-Nov-11 19:30N 40°38' W 074°08'0 0.0
2017-Nov-11 19:00N 40°38' W 074°08'0 0.0
2017-Nov-11 18:30N 40°38' W 074°08'0 0.0
2017-Nov-11 18:00N 40°38' W 074°08'0 0.0
2017-Nov-11 17:30N 40°38' W 074°08'0 0.0
2017-Nov-11 17:00N 40°38' W 074°08'0 0.0
2017-Nov-11 16:30N 40°38' W 074°08'0 0.0
2017-Nov-11 16:00N 40°38' W 074°08'0 0.0
2017-Nov-11 15:30N 40°38' W 074°08'0 0.0
2017-Nov-11 15:00N 40°38' W 074°08'0 0.0
2017-Nov-11 14:30N 40°38' W 074°08'0 0.0
2017-Nov-11 14:00N 40°38' W 074°08'1 1.0
2017-Nov-11 13:30N 40°39' W 074°07'4 8.9
2017-Nov-11 13:00N 40°41' W 074°02'510.7
2017-Nov-11 12:30N 40°46' W 074°00'0 0.3
2017-Nov-11 12:00N 40°46' W 073°60'0 0.2
2017-Nov-11 11:30N 40°46' W 073°60'0 0.0
2017-Nov-11 11:00N 40°46' W 073°60'0 0.0
2017-Nov-11 10:30N 40°46' W 073°60'0 0.0
2017-Nov-11 10:00N 40°46' W 073°60'0 0.0
2017-Nov-11 09:30N 40°46' W 073°60'0 0.0
2017-Nov-11 09:00N 40°46' W 073°60'0 0.0
2017-Nov-11 08:30N 40°46' W 073°60'0 0.0
2017-Nov-11 08:00N 40°46' W 073°60'4 8.2
2017-Nov-11 07:30N 40°42' W 074°02'4 8.7
2017-Nov-11 07:00N 40°39' W 074°05'3 6.4
2017-Nov-11 06:30N 40°38' W 074°09'0 0.3
2017-Nov-11 06:00N 40°38' W 074°09'1 2.2
2017-Nov-11 05:30N 40°38' W 074°08'0 0.0
2017-Nov-11 05:00N 40°38' W 074°08'0 0.0
2017-Nov-11 04:30N 40°38' W 074°08'0 0.0
2017-Nov-11 04:00N 40°38' W 074°08'0 0.0
2017-Nov-11 03:29N 40°38' W 074°08'0 0.0
2017-Nov-11 02:59N 40°38' W 074°08'0 0.0
2017-Nov-11 02:30N 40°38' W 074°08'0 0.0
2017-Nov-11 02:00N 40°38' W 074°08'0 0.0
2017-Nov-11 01:30N 40°38' W 074°08'0 0.0
2017-Nov-11 01:00N 40°38' W 074°08'0 0.0
2017-Nov-11 00:30N 40°38' W 074°08'0 0.0
2017-Nov-11 00:00N 40°38' W 074°08'0 0.0
2017-Nov-10 23:30N 40°38' W 074°08'0 0.0
2017-Nov-10 23:00N 40°38' W 074°08'0 0.0
2017-Nov-10 22:30N 40°38' W 074°08'0 0.0
2017-Nov-10 22:01N 40°38' W 074°08'0 0.0
2017-Nov-10 21:30N 40°38' W 074°08'0 0.0
2017-Nov-10 20:58N 40°38' W 074°08'0 0.0
2017-Nov-10 20:30N 40°38' W 074°08'0 0.0
2017-Nov-10 19:59N 40°38' W 074°08'0 0.0
2017-Nov-10 19:29N 40°38' W 074°08'0 0.0
2017-Nov-10 18:59N 40°38' W 074°08'2 3.7
2017-Nov-10 18:30N 40°39' W 074°06'4 8.1
2017-Nov-10 18:00N 40°41' W 074°01'1 1.7
2017-Nov-10 17:30N 40°41' W 074°00'2 4.4
2017-Nov-10 17:01N 40°40' W 074°02'4 8.7
2017-Nov-10 16:30N 40°39' W 074°08'1 2.8
2017-Nov-10 16:01N 40°39' W 074°10'0 0.9
2017-Nov-10 15:30N 40°39' W 074°10'2 3.2
2017-Nov-10 15:00N 40°38' W 074°12'0 0.0
2017-Nov-10 14:30N 40°38' W 074°12'0 0.0
2017-Nov-10 14:00N 40°38' W 074°12'0 0.0
2017-Nov-10 13:30N 40°38' W 074°12'0 0.0
2017-Nov-10 13:00N 40°38' W 074°12'0 0.0
2017-Nov-10 12:30N 40°38' W 074°12'0 0.0
2017-Nov-10 12:00N 40°38' W 074°12'0 0.0
2017-Nov-10 11:30N 40°38' W 074°12'0 0.0
2017-Nov-10 11:00N 40°38' W 074°12'0 0.0
2017-Nov-10 10:29N 40°38' W 074°12'0 0.0
2017-Nov-10 10:00N 40°38' W 074°12'0 0.0
2017-Nov-10 09:30N 40°38' W 074°12'1 1.5
2017-Nov-10 09:00N 40°37' W 074°12'4 6.9
2017-Nov-10 08:25N 40°33' W 074°14'0 0.0
2017-Nov-10 06:14N 40°34' W 074°14'0 0.0
2017-Nov-10 05:45N 40°34' W 074°14'0 0.0
2017-Nov-10 05:30N 40°34' W 074°14'3 3.9
2017-Nov-10 04:49N 40°36' W 074°12'2 7.3
2017-Nov-10 04:29N 40°38' W 074°12'3 6.4
2017-Nov-10 04:00N 40°38' W 074°08'0 0.0
2017-Nov-10 03:30N 40°38' W 074°08'0 0.0
2017-Nov-10 03:00N 40°38' W 074°08'0 0.0
2017-Nov-10 02:30N 40°38' W 074°08'0 0.0
2017-Nov-10 02:00N 40°38' W 074°08'0 0.0
2017-Nov-10 01:30N 40°38' W 074°08'0 0.0
2017-Nov-10 01:00N 40°38' W 074°08'0 0.0
2017-Nov-10 00:29N 40°38' W 074°08'0 0.0
2017-Nov-10 00:00N 40°38' W 074°08'0 0.0
2017-Nov-09 23:29N 40°38' W 074°08'0 0.0
2017-Nov-09 22:58N 40°38' W 074°08'0 0.0
2017-Nov-09 22:29N 40°38' W 074°08'0 0.0
2017-Nov-09 21:59N 40°38' W 074°08'0 0.0
2017-Nov-09 21:30N 40°38' W 074°08'0 0.0
2017-Nov-09 21:00N 40°38' W 074°08'0 0.0
2017-Nov-09 20:29N 40°38' W 074°08'0 0.0
2017-Nov-09 20:00N 40°38' W 074°08'0 0.0
2017-Nov-09 19:29N 40°38' W 074°08'0 0.0
2017-Nov-09 19:00N 40°38' W 074°08'0 0.0
2017-Nov-09 18:30N 40°38' W 074°08'3 5.8
2017-Nov-09 18:00N 40°39' W 074°04'3 5.3
2017-Nov-09 17:30N 40°40' W 074°01'0 0.2
2017-Nov-09 17:00N 40°40' W 074°01'0 0.2
2017-Nov-09 16:31N 40°40' W 074°01'0 0.2
2017-Nov-09 16:00N 40°40' W 074°01'0 0.0
2017-Nov-09 15:30N 40°40' W 074°01'3 6.6
2017-Nov-09 15:00N 40°39' W 074°05'2 4.4
2017-Nov-09 14:30N 40°38' W 074°08'0 0.0
2017-Nov-09 14:00N 40°38' W 074°08'0 0.0
2017-Nov-09 13:30N 40°38' W 074°08'0 0.0
2017-Nov-09 13:00N 40°38' W 074°08'0 0.0
2017-Nov-09 12:30N 40°38' W 074°08'0 0.0
2017-Nov-09 12:00N 40°38' W 074°08'0 0.0
2017-Nov-09 11:30N 40°38' W 074°08'0 0.0
2017-Nov-09 11:00N 40°38' W 074°08'0 0.0
2017-Nov-09 10:30N 40°38' W 074°08'  
Track history (hours):
 
Tides and Currents Weather Stations Pressure Air Temp Water Temp Dewpoint Dewpoint Depression Visibility Wind Speed Wind Dir Waves Ship Positions

Al Cenac

Owner: Caillou Island Towing Co, Inc., Houma, LA. More information available from US FCC via Universal Licensing System and Coast Guard Vessel Documentation Center.

Last reported at 2017-Nov-19 10:01 UTC. Time now 2017-Nov-19 10:12 UTC.
Position N 40°40' W 074°04'.

; draft 10 m.

Type: Tug. MMSI: 367158530.

Date/timePositionNaut miles runAvg speedWind from/ knotsBaromVisibWave heightAir tempDewpointWater temp
2017-Nov-19 10:01N 40°40' W 074°04'0 0.0
2017-Nov-19 09:31N 40°40' W 074°04'0 0.0
2017-Nov-19 09:01N 40°40' W 074°04'0 0.0
2017-Nov-19 08:31N 40°40' W 074°04'0 0.7
2017-Nov-19 08:01N 40°40' W 074°04'2 3.5
2017-Nov-19 07:27N 40°39' W 074°07'0 1.1
2017-Nov-19 07:01N 40°39' W 074°06'2 3.6
2017-Nov-19 06:31N 40°39' W 074°04'1 1.8
2017-Nov-19 06:01N 40°40' W 074°04'0 0.0
2017-Nov-19 05:31N 40°40' W 074°04'0 0.0
2017-Nov-19 05:01N 40°40' W 074°04'0 0.0
2017-Nov-19 04:31N 40°40' W 074°04'0 0.3
2017-Nov-19 04:01N 40°40' W 074°04'4 7.9
2017-Nov-19 03:28N 40°39' W 074°09'2 5.1
2017-Nov-19 03:00N 40°38' W 074°12'0 0.0
2017-Nov-19 02:30N 40°38' W 074°12'3 5.3
2017-Nov-19 02:00N 40°39' W 074°09'1 1.2
2017-Nov-19 01:10N 40°38' W 074°08'0 0.0
2017-Nov-19 00:43N 40°38' W 074°08'0 0.0
2017-Nov-19 00:28N 40°38' W 074°08'0 0.0
2017-Nov-18 23:57N 40°38' W 074°08'0 0.0
2017-Nov-18 23:26N 40°38' W 074°08'0 0.0
2017-Nov-18 22:54N 40°38' W 074°08'0 0.0
2017-Nov-18 22:30N 40°38' W 074°08'0 0.0
2017-Nov-18 21:22N 40°38' W 074°08'0 0.0
2017-Nov-18 20:54N 40°38' W 074°08'0 0.0
2017-Nov-18 20:29N 40°38' W 074°08'0 0.0
2017-Nov-18 19:59N 40°38' W 074°08'0 0.0
2017-Nov-18 19:30N 40°38' W 074°08'0 0.0
2017-Nov-18 18:59N 40°38' W 074°08'0 0.0
2017-Nov-18 18:30N 40°38' W 074°08'0 0.0
2017-Nov-18 18:00N 40°38' W 074°08'0 0.0
2017-Nov-18 17:30N 40°38' W 074°08'0 0.0
2017-Nov-18 17:00N 40°38' W 074°08'0 0.0
2017-Nov-18 16:30N 40°38' W 074°08'0 0.0
2017-Nov-18 15:59N 40°38' W 074°08'0 0.0
2017-Nov-18 15:30N 40°38' W 074°08'0 0.0
2017-Nov-18 15:00N 40°38' W 074°08'0 0.0
2017-Nov-18 14:30N 40°38' W 074°08'1 2.2
2017-Nov-18 14:00N 40°39' W 074°06'3 6.6
2017-Nov-18 13:31N 40°40' W 074°03'3 5.5
2017-Nov-18 13:01N 40°43' W 074°02'3 5.5
2017-Nov-18 12:30N 40°46' W 074°01'1 1.2
2017-Nov-18 12:01N 40°46' W 073°60'0 0.4
2017-Nov-18 11:30N 40°46' W 074°00'1 2.9
2017-Nov-18 11:00N 40°45' W 074°01'1 2.6
2017-Nov-18 10:31N 40°44' W 074°02'3 6.7
2017-Nov-18 10:01N 40°41' W 074°03'3 6.2
2017-Nov-18 09:29N 40°39' W 074°06'1 2.4
2017-Nov-18 09:01N 40°39' W 074°08'0 0.0
2017-Nov-18 08:31N 40°39' W 074°08'0 0.0
2017-Nov-18 08:01N 40°39' W 074°08'0 0.0
2017-Nov-18 07:30N 40°39' W 074°08'0 0.0
2017-Nov-18 07:00N 40°39' W 074°08'0 0.0
2017-Nov-18 06:30N 40°39' W 074°08'0 0.0
2017-Nov-18 06:00N 40°39' W 074°08'0 0.0
2017-Nov-18 05:31N 40°39' W 074°08'0 0.0
2017-Nov-18 05:00N 40°39' W 074°08'0 0.0
2017-Nov-18 04:30N 40°39' W 074°08'0 0.1
2017-Nov-18 04:00N 40°39' W 074°08'2 3.2
2017-Nov-18 03:31N 40°39' W 074°10'0 0.1
2017-Nov-18 03:00N 40°39' W 074°10'2 3.0
2017-Nov-18 02:30N 40°38' W 074°12'3 7.1
2017-Nov-18 02:01N 40°35' W 074°13'3 5.9
2017-Nov-18 01:29N 40°32' W 074°15'1 0.3
2017-Nov-17 21:49N 40°33' W 074°14'4 6.2
2017-Nov-17 21:15N 40°37' W 074°12'1 4.1
2017-Nov-17 21:00N 40°38' W 074°12'0 0.2
2017-Nov-17 20:30N 40°38' W 074°12'3 5.1
2017-Nov-17 20:00N 40°39' W 074°09'3 6.7
2017-Nov-17 19:31N 40°39' W 074°05'1 1.1
2017-Nov-17 19:00N 40°39' W 074°04'1 1.5
2017-Nov-17 18:31N 40°39' W 074°05'1 2.9
2017-Nov-17 18:01N 40°39' W 074°03'3 5.8
2017-Nov-17 17:31N 40°41' W 074°01'1 2.1
2017-Nov-17 17:01N 40°42' W 074°00'0 0.2
2017-Nov-17 16:31N 40°42' W 074°00'2 4.6
2017-Nov-17 16:01N 40°40' W 074°02'4 8.2
2017-Nov-17 15:30N 40°39' W 074°08'0 0.4
2017-Nov-17 14:59N 40°39' W 074°08'0 0.0
2017-Nov-17 14:30N 40°39' W 074°08'0 0.0
2017-Nov-17 14:00N 40°39' W 074°08'0 0.0
2017-Nov-17 13:30N 40°39' W 074°08'0 0.0
2017-Nov-17 12:53N 40°39' W 074°08'0 0.0
2017-Nov-17 12:30N 40°39' W 074°08'0 0.0
2017-Nov-17 12:00N 40°39' W 074°08'0 0.0
2017-Nov-17 11:30N 40°39' W 074°08'0 0.0
2017-Nov-17 10:59N 40°39' W 074°08'0 0.0
2017-Nov-17 10:29N 40°39' W 074°08'3 5.5
2017-Nov-17 09:59N 40°38' W 074°12'2 4.7
2017-Nov-17 09:30N 40°36' W 074°12'1 1.6
2017-Nov-17 08:58N 40°37' W 074°12'1 1.3
2017-Nov-17 08:31N 40°38' W 074°12'0 0.0
2017-Nov-17 08:01N 40°38' W 074°12'1 2.0
2017-Nov-17 07:30N 40°37' W 074°12'1 2.7
2017-Nov-17 06:59N 40°35' W 074°13'0 0.0
2017-Nov-17 06:30N 40°35' W 074°13'4 7.2
2017-Nov-17 06:00N 40°39' W 074°11'2 5.0
2017-Nov-17 05:30N 40°39' W 074°08'0 0.0
2017-Nov-17 05:00N 40°39' W 074°08'0 0.0
2017-Nov-17 04:30N 40°39' W 074°08'0 0.0
2017-Nov-17 04:00N 40°39' W 074°08'0 0.0
2017-Nov-17 03:31N 40°39' W 074°08'0 0.0
2017-Nov-17 03:00N 40°39' W 074°08'0 0.0
2017-Nov-17 02:30N 40°39' W 074°08'0 0.0
2017-Nov-17 02:00N 40°39' W 074°08'0 0.0
2017-Nov-17 01:30N 40°39' W 074°08'0 0.0
2017-Nov-17 01:00N 40°39' W 074°08'0 0.0
2017-Nov-17 00:30N 40°39' W 074°08'0 0.0
2017-Nov-17 00:00N 40°39' W 074°08'0 0.0
2017-Nov-16 23:31N 40°39' W 074°08'2 4.0
2017-Nov-16 23:00N 40°39' W 074°11'1 2.0
2017-Nov-16 22:30N 40°38' W 074°12'0 0.0
2017-Nov-16 22:01N 40°38' W 074°12'0 0.3
2017-Nov-16 21:29N 40°38' W 074°12'1 2.1
2017-Nov-16 21:00N 40°37' W 074°12'2 4.0
2017-Nov-16 20:30N 40°35' W 074°13'0 0.5
2017-Nov-16 20:00N 40°35' W 074°12'0 0.6
2017-Nov-16 19:28N 40°36' W 074°12'0 0.0
2017-Nov-16 19:00N 40°36' W 074°12'0 0.0
2017-Nov-16 18:29N 40°36' W 074°12'0 0.7
2017-Nov-16 17:59N 40°36' W 074°12'0 0.8
2017-Nov-16 17:31N 40°36' W 074°12'0 0.0
2017-Nov-16 16:58N 40°36' W 074°12'0 0.0
2017-Nov-16 16:28N 40°36' W 074°12'0 0.0
2017-Nov-16 15:58N 40°36' W 074°12'4 2.2
2017-Nov-16 14:13N 40°33' W 074°15'4 3.2
2017-Nov-16 13:03N 40°36' W 074°12'0 1.1
2017-Nov-16 13:00N 40°36' W 074°12'4 1.9
2017-Nov-16 11:00N 40°33' W 074°15'1 0.1
2017-Nov-16 02:14N 40°33' W 074°14'3 8.0
2017-Nov-16 01:55N 40°36' W 074°12'3 7.7
2017-Nov-16 01:30N 40°39' W 074°11'4 7.2
2017-Nov-16 01:00N 40°39' W 074°07'4 7.4
2017-Nov-16 00:31N 40°41' W 074°02'3 6.5
2017-Nov-16 00:01N 40°43' W 073°59'1 1.1
2017-Nov-15 23:31N 40°42' W 073°58'0 0.0
2017-Nov-15 23:00N 40°42' W 073°58'0 0.0
2017-Nov-15 22:31N 40°42' W 073°58'0 0.0
2017-Nov-15 22:01N 40°42' W 073°58'0 0.0
2017-Nov-15 21:31N 40°42' W 073°58'0 0.0
2017-Nov-15 21:01N 40°42' W 073°58'0 0.0
2017-Nov-15 20:30N 40°42' W 073°58'0 0.0
2017-Nov-15 20:01N 40°42' W 073°58'0 0.0
2017-Nov-15 19:31N 40°42' W 073°58'0 0.1
2017-Nov-15 19:00N 40°42' W 073°58'1 2.1
2017-Nov-15 18:30N 40°42' W 073°60'1 2.2
2017-Nov-15 18:00N 40°42' W 073°58'0 0.0
2017-Nov-15 17:30N 40°42' W 073°58'2 4.5
2017-Nov-15 17:01N 40°41' W 074°01'4 7.1
2017-Nov-15 16:30N 40°39' W 074°05'3 5.1
2017-Nov-15 16:01N 40°39' W 074°08'0 0.0
2017-Nov-15 15:31N 40°39' W 074°08'2 3.0
2017-Nov-15 15:00N 40°39' W 074°06'4 8.3
2017-Nov-15 14:31N 40°42' W 074°02'4 8.9
2017-Nov-15 14:01N 40°46' W 074°01'4 8.0
2017-Nov-15 13:29N 40°50' W 073°58'3 7.1
2017-Nov-15 13:00N 40°53' W 073°56'3 6.3
2017-Nov-15 12:30N 40°56' W 073°54'0 0.0
2017-Nov-15 11:58N 40°56' W 073°54'1 1.2
2017-Nov-15 11:30N 40°56' W 073°55'0 0.5
2017-Nov-15 10:57N 40°56' W 073°55'3 7.3
2017-Nov-15 10:31N 40°53' W 073°56'5 9.7
2017-Nov-15 10:00N 40°48' W 073°59'2 4.9
2017-Nov-15 09:31N 40°46' W 073°60'0 0.0
2017-Nov-15 09:00N 40°46' W 073°60'0 0.0
2017-Nov-15 08:31N 40°46' W 073°60'0 0.0
2017-Nov-15 08:01N 40°46' W 073°60'0 0.0
2017-Nov-15 07:30N 40°46' W 073°60'0 0.0
2017-Nov-15 07:01N 40°46' W 073°60'0 0.0
2017-Nov-15 06:31N 40°46' W 073°60'0 0.0
2017-Nov-15 06:00N 40°46' W 073°60'0 0.0
2017-Nov-15 05:30N 40°46' W 073°60'0 0.0
2017-Nov-15 05:01N 40°46' W 073°60'0 0.0
2017-Nov-15 04:31N 40°46' W 073°60'0 0.0
2017-Nov-15 04:01N 40°46' W 073°60'0 0.0
2017-Nov-15 03:30N 40°46' W 073°60'1 1.2
2017-Nov-15 03:00N 40°47' W 073°60'510.1
2017-Nov-15 02:30N 40°51' W 073°57'4 8.0
2017-Nov-15 01:57N 40°56' W 073°55'0 0.5
2017-Nov-15 01:29N 40°56' W 073°54'4 7.7
2017-Nov-15 01:00N 40°52' W 073°56'5 9.3
2017-Nov-15 00:30N 40°48' W 073°59'5 9.2
2017-Nov-15 00:01N 40°44' W 074°01'4 8.9
2017-Nov-14 23:31N 40°40' W 074°03'4 6.9
2017-Nov-14 23:00N 40°38' W 074°08'0 0.0
2017-Nov-14 22:30N 40°38' W 074°08'0 0.8
2017-Nov-14 22:00N 40°39' W 074°07'0 0.2
2017-Nov-14 21:29N 40°39' W 074°07'2 4.2
2017-Nov-14 21:01N 40°38' W 074°10'0 0.0
2017-Nov-14 20:30N 40°38' W 074°10'0 0.0
2017-Nov-14 20:00N 40°38' W 074°10'0 0.0
2017-Nov-14 19:30N 40°38' W 074°10'0 0.0
2017-Nov-14 19:00N 40°38' W 074°10'0 0.0
2017-Nov-14 18:29N 40°38' W 074°10'0 0.0
2017-Nov-14 18:00N 40°38' W 074°10'1 1.3
2017-Nov-14 17:30N 40°38' W 074°09'3 5.4
2017-Nov-14 17:01N 40°39' W 074°06'0 0.0
2017-Nov-14 16:31N 40°39' W 074°05'2 3.6
2017-Nov-14 15:59N 40°38' W 074°08'0 0.0
2017-Nov-14 15:25N 40°38' W 074°08'0 0.0
2017-Nov-14 15:00N 40°38' W 074°08'0 0.0
2017-Nov-14 14:31N 40°38' W 074°08'0 0.0
2017-Nov-14 14:00N 40°38' W 074°08'0 0.0
2017-Nov-14 13:29N 40°38' W 074°08'0 0.0
2017-Nov-14 13:01N 40°38' W 074°08'0 0.0
2017-Nov-14 12:29N 40°38' W 074°08'0 0.0
2017-Nov-14 12:00N 40°38' W 074°08'0 0.0
2017-Nov-14 11:31N 40°38' W 074°08'0 0.0
2017-Nov-14 11:01N 40°38' W 074°08'2 4.3
2017-Nov-14 10:30N 40°39' W 074°11'4 7.1
2017-Nov-14 09:58N 40°35' W 074°12'1 2.5
2017-Nov-14 09:28N 40°36' W 074°12'4 4.1
2017-Nov-14 08:30N 40°38' W 074°08'0 0.0
2017-Nov-14 08:00N 40°38' W 074°08'0 0.0
2017-Nov-14 07:30N 40°38' W 074°08'0 0.0
2017-Nov-14 06:59N 40°38' W 074°08'0 0.0
2017-Nov-14 06:30N 40°38' W 074°08'0 0.0
2017-Nov-14 06:00N 40°38' W 074°08'0 0.0
2017-Nov-14 05:29N 40°38' W 074°08'0 0.0
2017-Nov-14 05:00N 40°38' W 074°08'0 0.0
2017-Nov-14 04:30N 40°38' W 074°08'0 0.0
2017-Nov-14 04:00N 40°38' W 074°08'0 0.0
2017-Nov-14 03:30N 40°38' W 074°08'1 1.4
2017-Nov-14 03:00N 40°39' W 074°07'1 2.3
2017-Nov-14 02:30N 40°39' W 074°05'2 3.0
2017-Nov-14 02:00N 40°39' W 074°07'3 6.4
2017-Nov-14 01:30N 40°38' W 074°12'0 0.2
2017-Nov-14 01:00N 40°38' W 074°12'0 0.0
2017-Nov-14 00:30N 40°38' W 074°12'0 0.0
2017-Nov-14 00:00N 40°38' W 074°12'3 5.8
2017-Nov-13 23:30N 40°38' W 074°08'0 0.0
2017-Nov-13 22:55N 40°38' W 074°08'0 0.0
2017-Nov-13 22:29N 40°38' W 074°08'0 0.0
2017-Nov-13 22:00N 40°38' W 074°08'0 0.0
2017-Nov-13 01:59N 40°38' W 074°08'0 0.0
2017-Nov-13 01:30N 40°38' W 074°08'0 0.0
2017-Nov-13 01:00N 40°38' W 074°08'0 0.0
2017-Nov-13 00:30N 40°38' W 074°08'0 0.0
2017-Nov-12 23:59N 40°38' W 074°08'0 0.0
2017-Nov-12 23:30N 40°38' W 074°08'0 0.0
2017-Nov-12 23:00N 40°38' W 074°08'0 0.0
2017-Nov-12 22:30N 40°38' W 074°08'0 0.0
2017-Nov-12 22:00N 40°38' W 074°08'0 0.0
2017-Nov-12 21:30N 40°38' W 074°08'0 0.0
2017-Nov-12 21:01N 40°38' W 074°08'0 0.0
2017-Nov-12 20:29N 40°38' W 074°08'0 0.0
2017-Nov-12 20:00N 40°38' W 074°08'0 0.0
2017-Nov-12 19:30N 40°38' W 074°08'0 0.0
2017-Nov-12 18:59N 40°38' W 074°08'0 0.0
2017-Nov-12 18:30N 40°38' W 074°08'0 0.0
2017-Nov-12 18:00N 40°38' W 074°08'1 1.3
2017-Nov-12 17:30N 40°39' W 074°09'4 7.6
2017-Nov-12 17:00N 40°42' W 074°07'0 0.5
2017-Nov-12 16:30N 40°42' W 074°07'3 7.0
2017-Nov-12 16:00N 40°39' W 074°09'1 2.0
2017-Nov-12 15:30N 40°39' W 074°08'0 0.0
2017-Nov-12 15:00N 40°39' W 074°08'0 0.0
2017-Nov-12 14:30N 40°39' W 074°08'2 3.7
2017-Nov-12 14:00N 40°39' W 074°05'4 8.4
2017-Nov-12 13:30N 40°42' W 074°02'4 8.3
2017-Nov-12 13:00N 40°46' W 073°60'0 0.3
2017-Nov-12 12:30N 40°46' W 074°00'0 0.2
2017-Nov-12 12:00N 40°46' W 073°60'0 0.0
2017-Nov-12 11:30N 40°46' W 073°60'4 7.6
2017-Nov-12 11:00N 40°43' W 074°01'4 7.8
2017-Nov-12 10:30N 40°39' W 074°04'3 6.0
2017-Nov-12 09:59N 40°38' W 074°08'0 0.0
2017-Nov-12 09:30N 40°38' W 074°08'0 0.0
2017-Nov-12 09:00N 40°38' W 074°08'0 0.0
2017-Nov-12 08:30N 40°38' W 074°08'0 0.0
2017-Nov-12 08:01N 40°38' W 074°08'0 0.0
2017-Nov-12 07:30N 40°38' W 074°08'0 0.0
2017-Nov-12 07:00N 40°38' W 074°08'0 0.0
2017-Nov-12 06:29N 40°38' W 074°08'0 0.0
2017-Nov-12 06:00N 40°38' W 074°08'0 0.0
2017-Nov-12 05:30N 40°38' W 074°08'0 0.0
2017-Nov-12 05:00N 40°38' W 074°08'0 0.0
2017-Nov-12 04:30N 40°38' W 074°08'0 0.0
2017-Nov-12 04:00N 40°38' W 074°08'0 0.0
2017-Nov-12 03:30N 40°38' W 074°08'0 0.0
2017-Nov-12 03:00N 40°38' W 074°08'0 0.0
2017-Nov-12 02:30N 40°38' W 074°08'0 0.0
2017-Nov-12 02:00N 40°38' W 074°08'0 0.0
2017-Nov-12 01:30N 40°38' W 074°08'0 0.0
2017-Nov-12 01:00N 40°38' W 074°08'0 0.0
2017-Nov-12 00:30N 40°38' W 074°08'0 0.0
2017-Nov-12 00:00N 40°38' W 074°08'1 2.6
2017-Nov-11 23:30N 40°39' W 074°06'4 8.4
2017-Nov-11 23:00N 40°40' W 074°01'1 1.1
2017-Nov-11 22:31N 40°40' W 074°01'5 9.6
2017-Nov-11 22:00N 40°39' W 074°08'0 0.2
2017-Nov-11 21:30N 40°38' W 074°08'0 0.0
2017-Nov-11 21:00N 40°38' W 074°08'0 0.0
2017-Nov-11 20:30N 40°38' W 074°08'0 0.0
2017-Nov-11 20:00N 40°38' W 074°08'0 0.0
2017-Nov-11 19:30N 40°38' W 074°08'0 0.0
2017-Nov-11 19:00N 40°38' W 074°08'0 0.0
2017-Nov-11 18:30N 40°38' W 074°08'0 0.0
2017-Nov-11 18:00N 40°38' W 074°08'0 0.0
2017-Nov-11 17:30N 40°38' W 074°08'0 0.0
2017-Nov-11 17:00N 40°38' W 074°08'0 0.0
2017-Nov-11 16:30N 40°38' W 074°08'0 0.0
2017-Nov-11 16:00N 40°38' W 074°08'0 0.0
2017-Nov-11 15:30N 40°38' W 074°08'0 0.0
2017-Nov-11 15:00N 40°38' W 074°08'0 0.0
2017-Nov-11 14:30N 40°38' W 074°08'0 0.0
2017-Nov-11 14:00N 40°38' W 074°08'1 1.0
2017-Nov-11 13:30N 40°39' W 074°07'4 8.9
2017-Nov-11 13:00N 40°41' W 074°02'510.7
2017-Nov-11 12:30N 40°46' W 074°00'0 0.3
2017-Nov-11 12:00N 40°46' W 073°60'0 0.2
2017-Nov-11 11:30N 40°46' W 073°60'0 0.0
2017-Nov-11 11:00N 40°46' W 073°60'0 0.0
2017-Nov-11 10:30N 40°46' W 073°60'0 0.0
2017-Nov-11 10:00N 40°46' W 073°60'0 0.0
2017-Nov-11 09:30N 40°46' W 073°60'0 0.0
2017-Nov-11 09:00N 40°46' W 073°60'0 0.0
2017-Nov-11 08:30N 40°46' W 073°60'0 0.0
2017-Nov-11 08:00N 40°46' W 073°60'4 8.2
2017-Nov-11 07:30N 40°42' W 074°02'4 8.7
2017-Nov-11 07:00N 40°39' W 074°05'3 6.4
2017-Nov-11 06:30N 40°38' W 074°09'0 0.3
2017-Nov-11 06:00N 40°38' W 074°09'1 2.2
2017-Nov-11 05:30N 40°38' W 074°08'0 0.0
2017-Nov-11 05:00N 40°38' W 074°08'0 0.0
2017-Nov-11 04:30N 40°38' W 074°08'0 0.0
2017-Nov-11 04:00N 40°38' W 074°08'0 0.0
2017-Nov-11 03:29N 40°38' W 074°08'0 0.0
2017-Nov-11 02:59N 40°38' W 074°08'0 0.0
2017-Nov-11 02:30N 40°38' W 074°08'0 0.0
2017-Nov-11 02:00N 40°38' W 074°08'0 0.0
2017-Nov-11 01:30N 40°38' W 074°08'0 0.0
2017-Nov-11 01:00N 40°38' W 074°08'0 0.0
2017-Nov-11 00:30N 40°38' W 074°08'0 0.0
2017-Nov-11 00:00N 40°38' W 074°08'0 0.0
2017-Nov-10 23:30N 40°38' W 074°08'0 0.0
2017-Nov-10 23:00N 40°38' W 074°08'0 0.0
2017-Nov-10 22:30N 40°38' W 074°08'0 0.0
2017-Nov-10 22:01N 40°38' W 074°08'0 0.0
2017-Nov-10 21:30N 40°38' W 074°08'0 0.0
2017-Nov-10 20:58N 40°38' W 074°08'0 0.0
2017-Nov-10 20:30N 40°38' W 074°08'0 0.0
2017-Nov-10 19:59N 40°38' W 074°08'0 0.0
2017-Nov-10 19:29N 40°38' W 074°08'0 0.0
2017-Nov-10 18:59N 40°38' W 074°08'2 3.7
2017-Nov-10 18:30N 40°39' W 074°06'4 8.1
2017-Nov-10 18:00N 40°41' W 074°01'1 1.7
2017-Nov-10 17:30N 40°41' W 074°00'2 4.4
2017-Nov-10 17:01N 40°40' W 074°02'4 8.7
2017-Nov-10 16:30N 40°39' W 074°08'1 2.8
2017-Nov-10 16:01N 40°39' W 074°10'0 0.9
2017-Nov-10 15:30N 40°39' W 074°10'2 3.2
2017-Nov-10 15:00N 40°38' W 074°12'0 0.0
2017-Nov-10 14:30N 40°38' W 074°12'0 0.0
2017-Nov-10 14:00N 40°38' W 074°12'0 0.0
2017-Nov-10 13:30N 40°38' W 074°12'0 0.0
2017-Nov-10 13:00N 40°38' W 074°12'0 0.0
2017-Nov-10 12:30N 40°38' W 074°12'0 0.0
2017-Nov-10 12:00N 40°38' W 074°12'0 0.0
2017-Nov-10 11:30N 40°38' W 074°12'0 0.0
2017-Nov-10 11:00N 40°38' W 074°12'0 0.0
2017-Nov-10 10:29N 40°38' W 074°12'0 0.0
2017-Nov-10 10:00N 40°38' W 074°12'0 0.0
2017-Nov-10 09:30N 40°38' W 074°12'1 1.5
2017-Nov-10 09:00N 40°37' W 074°12'4 6.9
2017-Nov-10 08:25N 40°33' W 074°14'0 0.0
2017-Nov-10 06:14N 40°34' W 074°14'0 0.0
2017-Nov-10 05:45N 40°34' W 074°14'0 0.0
2017-Nov-10 05:30N 40°34' W 074°14'3 3.9
2017-Nov-10 04:49N 40°36' W 074°12'2 7.3
2017-Nov-10 04:29N 40°38' W 074°12'3 6.4
2017-Nov-10 04:00N 40°38' W 074°08'0 0.0
2017-Nov-10 03:30N 40°38' W 074°08'0 0.0
2017-Nov-10 03:00N 40°38' W 074°08'0 0.0
2017-Nov-10 02:30N 40°38' W 074°08'0 0.0
2017-Nov-10 02:00N 40°38' W 074°08'0 0.0
2017-Nov-10 01:30N 40°38' W 074°08'0 0.0
2017-Nov-10 01:00N 40°38' W 074°08'0 0.0
2017-Nov-10 00:29N 40°38' W 074°08'0 0.0
2017-Nov-10 00:00N 40°38' W 074°08'0 0.0
2017-Nov-09 23:29N 40°38' W 074°08'0 0.0
2017-Nov-09 22:58N 40°38' W 074°08'0 0.0
2017-Nov-09 22:29N 40°38' W 074°08'0 0.0
2017-Nov-09 21:59N 40°38' W 074°08'0 0.0
2017-Nov-09 21:30N 40°38' W 074°08'0 0.0
2017-Nov-09 21:00N 40°38' W 074°08'0 0.0
2017-Nov-09 20:29N 40°38' W 074°08'0 0.0
2017-Nov-09 20:00N 40°38' W 074°08'0 0.0
2017-Nov-09 19:29N 40°38' W 074°08'0 0.0
2017-Nov-09 19:00N 40°38' W 074°08'0 0.0
2017-Nov-09 18:30N 40°38' W 074°08'3 5.8
2017-Nov-09 18:00N 40°39' W 074°04'3 5.3
2017-Nov-09 17:30N 40°40' W 074°01'0 0.2
2017-Nov-09 17:00N 40°40' W 074°01'0 0.2
2017-Nov-09 16:31N 40°40' W 074°01'0 0.2
2017-Nov-09 16:00N 40°40' W 074°01'0 0.0
2017-Nov-09 15:30N 40°40' W 074°01'3 6.6
2017-Nov-09 15:00N 40°39' W 074°05'2 4.4
2017-Nov-09 14:30N 40°38' W 074°08'0 0.0
2017-Nov-09 14:00N 40°38' W 074°08'0 0.0
2017-Nov-09 13:30N 40°38' W 074°08'0 0.0
2017-Nov-09 13:00N 40°38' W 074°08'0 0.0
2017-Nov-09 12:30N 40°38' W 074°08'0 0.0
2017-Nov-09 12:00N 40°38' W 074°08'0 0.0
2017-Nov-09 11:30N 40°38' W 074°08'0 0.0
2017-Nov-09 11:00N 40°38' W 074°08'0 0.0
2017-Nov-09 10:30N 40°38' W 074°08'  

Dump ship's entire track history